Time;durP1;ratioP1;P1;durP2;ratioP2;P2;SDS_P1;SDS_P2;PMS_P1;PMS_P2;Temp;Humidity;BMP_temperature;BMP_pressure;BME280_temperature;BME280_humidity;BME280_pressure;Samples;Min_cycle;Max_cycle;Signal;HPM_P1;HPM_P2
2022/01/28 00:00:13;;;;;;;7.13;3.07;;;5.60;99.90;;;;;;625474;228;26528;-72
2022/01/28 00:05:16;;;;;;;8.77;2.87;;;5.60;99.90;;;;;;625458;230;26527;-72
2022/01/28 00:07:37;;;;;;;12.47;3.83;;;5.60;99.90;;;;;;625038;229;26547;-72
2022/01/28 00:10:05;;;;;;;11.53;3.00;;;5.60;99.90;;;;;;625681;227;27275;-72
2022/01/28 00:12:33;;;;;;;14.27;3.07;;;5.60;99.90;;;;;;627069;229;26567;-72
2022/01/28 00:15:10;;;;;;;11.80;3.07;;;5.70;99.90;;;;;;626557;229;26606;-72
2022/01/28 00:38:10;;;;;;;15.13;3.67;;;5.70;99.90;;;;;;625714;229;26840;-72
2022/01/28 00:40:33;;;;;;;12.83;3.37;;;5.70;99.90;;;;;;625369;227;26599;-72
2022/01/28 00:43:01;;;;;;;14.93;4.03;;;5.60;99.90;;;;;;625721;228;26798;-72
2022/01/28 00:45:28;;;;;;;15.03;3.97;;;5.60;99.90;;;;;;625779;228;26765;-72
2022/01/28 00:47:56;;;;;;;9.27;2.90;;;5.70;99.90;;;;;;625402;228;26535;-72
2022/01/28 00:50:24;;;;;;;13.23;4.57;;;5.70;99.90;;;;;;625455;228;26576;-73
2022/01/28 00:52:52;;;;;;;16.27;4.43;;;5.70;99.90;;;;;;625464;228;26588;-74
2022/01/28 00:55:20;;;;;;;14.13;4.30;;;5.80;99.90;;;;;;625506;223;26526;-74
2022/01/28 00:57:48;;;;;;;12.93;3.57;;;5.60;99.90;;;;;;625485;223;26546;-74
2022/01/28 01:00:16;;;;;;;16.27;3.50;;;5.70;99.90;;;;;;625525;228;26555;-74
2022/01/28 01:02:43;;;;;;;12.03;3.50;;;5.70;99.90;;;;;;625474;229;26529;-73
2022/01/28 01:05:11;;;;;;;11.80;3.53;;;5.60;99.90;;;;;;625558;229;26542;-73
2022/01/28 01:07:38;;;;;;;13.03;4.47;;;5.70;99.90;;;;;;625577;230;26825;-73
2022/01/28 01:10:05;;;;;;;12.57;3.90;;;5.70;99.90;;;;;;625499;228;26589;-73
2022/01/28 01:12:38;;;;;;;10.90;3.37;;;5.60;99.90;;;;;;625308;229;26575;-73
2022/01/28 01:15:01;;;;;;;10.13;3.60;;;5.50;99.90;;;;;;625091;229;26551;-74
2022/01/28 01:17:34;;;;;;;13.10;3.77;;;5.60;99.90;;;;;;625458;229;26754;-74
2022/01/28 01:20:12;;;;;;;9.50;2.60;;;5.50;99.90;;;;;;625042;229;26895;-74
2022/01/28 01:22:24;;;;;;;10.60;4.07;;;5.60;99.90;;;;;;626447;227;26620;-74
2022/01/28 01:24:59;;;;;;;14.63;3.70;;;5.60;99.90;;;;;;626757;229;26770;-74
2022/01/28 01:27:19;;;;;;;8.63;3.57;;;5.50;99.90;;;;;;626036;229;26593;-73
2022/01/28 01:29:46;;;;;;;13.60;4.80;;;5.60;99.90;;;;;;626350;228;26537;-73
2022/01/28 01:32:16;;;;;;;9.53;3.87;;;5.50;99.90;;;;;;626081;229;26632;-73
2022/01/28 01:34:40;;;;;;;13.50;4.27;;;5.60;99.90;;;;;;625881;228;26549;-73
2022/01/28 01:37:09;;;;;;;14.30;4.20;;;5.60;99.90;;;;;;625996;230;26826;-73
2022/01/28 01:39:37;;;;;;;15.63;4.20;;;5.50;99.90;;;;;;625938;228;26615;-73
2022/01/28 01:42:16;;;;;;;11.30;4.03;;;5.50;99.90;;;;;;625649;229;26813;-73
2022/01/28 01:52:22;;;;;;;10.30;3.30;;;5.60;99.90;;;;;;625701;228;26613;-73
2022/01/28 01:54:50;;;;;;;18.07;4.20;;;5.60;99.90;;;;;;625767;228;26571;-73
2022/01/28 01:57:16;;;;;;;14.27;4.53;;;5.60;99.90;;;;;;625706;229;26835;-73
2022/01/28 01:59:43;;;;;;;16.27;4.53;;;5.60;99.90;;;;;;625469;228;26522;-73
2022/01/28 02:02:11;;;;;;;15.50;4.33;;;5.60;99.90;;;;;;625461;229;26801;-73
2022/01/28 02:04:39;;;;;;;15.63;3.63;;;5.50;99.90;;;;;;625409;228;26536;-73
2022/01/28 02:07:07;;;;;;;15.03;4.10;;;5.40;99.90;;;;;;625460;228;26527;-73
2022/01/28 02:09:34;;;;;;;11.47;3.73;;;5.40;99.90;;;;;;625426;224;26543;-73
2022/01/28 02:12:02;;;;;;;11.10;4.23;;;5.40;99.90;;;;;;625388;229;26566;-73
2022/01/28 02:14:29;;;;;;;9.20;3.33;;;5.40;99.90;;;;;;625442;229;26749;-73
2022/01/28 02:16:56;;;;;;;11.57;4.13;;;5.40;99.90;;;;;;625422;229;26801;-73
2022/01/28 02:19:23;;;;;;;15.87;3.63;;;5.40;99.90;;;;;;625472;228;26544;-73
2022/01/28 02:21:52;;;;;;;11.67;3.80;;;5.40;99.90;;;;;;625478;229;26801;-73
2022/01/28 02:24:24;;;;;;;10.73;3.20;;;5.40;99.90;;;;;;625497;228;26542;-73
2022/01/28 02:26:45;;;;;;;13.20;4.03;;;5.40;99.90;;;;;;625506;228;26516;-72
2022/01/28 02:29:16;;;;;;;10.93;3.10;;;5.40;99.90;;;;;;625469;229;26556;-73
2022/01/28 02:31:41;;;;;;;15.53;4.63;;;5.40;99.90;;;;;;625424;229;26572;-72
2022/01/28 02:34:11;;;;;;;10.90;3.47;;;5.40;99.90;;;;;;626587;228;26560;-72
2022/01/28 02:36:35;;;;;;;11.10;3.47;;;5.50;99.90;;;;;;626743;229;26501;-73
2022/01/28 02:39:03;;;;;;;15.30;3.97;;;5.50;99.90;;;;;;626525;228;26733;-73
2022/01/28 02:41:35;;;;;;;13.70;4.27;;;5.50;99.90;;;;;;626471;229;26795;-73
2022/01/28 02:44:11;;;;;;;11.03;4.03;;;5.50;99.90;;;;;;625933;228;26768;-73
2022/01/28 02:46:30;;;;;;;14.40;4.27;;;5.50;99.90;;;;;;626211;228;26533;-72
2022/01/28 02:49:04;;;;;;;8.43;3.23;;;5.50;99.90;;;;;;626141;228;26534;-73
2022/01/28 02:51:23;;;;;;;13.37;3.97;;;5.40;99.90;;;;;;625467;229;26574;-73
2022/01/28 02:53:54;;;;;;;9.20;3.40;;;5.40;99.90;;;;;;625805;228;26616;-73
2022/01/28 02:56:21;;;;;;;10.87;3.53;;;5.40;99.90;;;;;;625779;228;26607;-73
2022/01/28 02:58:45;;;;;;;9.07;3.73;;;5.40;99.90;;;;;;625557;229;26909;-72
2022/01/28 03:01:13;;;;;;;17.57;3.37;;;5.20;99.90;;;;;;625684;229;26644;-72
2022/01/28 03:03:39;;;;;;;15.80;5.10;;;5.20;99.90;;;;;;625461;230;26602;-72
2022/01/28 03:06:07;;;;;;;12.57;3.73;;;5.10;99.90;;;;;;625628;228;26885;-72
2022/01/28 03:08:34;;;;;;;16.00;3.80;;;5.10;99.90;;;;;;625741;229;26796;-72
2022/01/28 03:16:22;;;;;;;15.50;4.03;;;5.30;99.90;;;;;;625490;229;26551;-73
2022/01/28 03:18:56;;;;;;;18.73;5.00;;;5.20;99.90;;;;;;625346;229;26528;-73
2022/01/28 03:21:24;;;;;;;14.17;4.50;;;5.30;99.90;;;;;;625409;228;26839;-74
2022/01/28 03:23:46;;;;;;;11.53;3.80;;;5.40;99.90;;;;;;625105;229;26764;-73
2022/01/28 03:26:14;;;;;;;10.60;3.67;;;5.40;99.90;;;;;;625419;228;26787;-73
2022/01/28 03:28:41;;;;;;;16.73;3.80;;;5.40;99.90;;;;;;625362;229;26531;-73
2022/01/28 03:31:09;;;;;;;15.50;4.43;;;5.40;99.90;;;;;;625420;228;26820;-73
2022/01/28 03:33:36;;;;;;;12.90;3.87;;;5.40;99.90;;;;;;625472;230;26543;-73
2022/01/28 03:36:07;;;;;;;12.17;3.10;;;5.40;99.90;;;;;;625418;228;26558;-73
2022/01/28 03:38:32;;;;;;;19.47;3.87;;;5.40;99.90;;;;;;625170;224;26544;-73
2022/01/28 03:40:59;;;;;;;12.50;3.63;;;5.30;99.90;;;;;;625419;228;26817;-73
2022/01/28 03:43:26;;;;;;;16.63;4.50;;;5.30;99.90;;;;;;625457;228;26548;-73
2022/01/28 03:45:53;;;;;;;19.23;4.73;;;5.40;99.90;;;;;;626513;228;26592;-73
2022/01/28 03:48:21;;;;;;;11.10;3.80;;;5.40;99.90;;;;;;626774;229;26575;-73
2022/01/28 03:50:51;;;;;;;11.57;3.53;;;5.40;99.90;;;;;;626452;228;26534;-73
2022/01/28 03:53:16;;;;;;;14.03;3.63;;;5.40;99.90;;;;;;626424;228;26537;-73
2022/01/28 03:55:45;;;;;;;12.03;3.30;;;5.50;99.90;;;;;;626070;229;26602;-73
2022/01/28 03:58:11;;;;;;;20.13;3.63;;;5.50;99.90;;;;;;626033;229;26821;-73
2022/01/28 04:00:38;;;;;;;13.90;3.13;;;5.50;99.90;;;;;;626017;228;26606;-73
2022/01/28 04:03:38;;;;;;;11.43;3.67;;;5.60;99.90;;;;;;625952;228;26859;-73
2022/01/28 04:11:25;;;;;;;12.30;3.10;;;5.50;99.90;;;;;;624278;230;26592;-73
2022/01/28 04:13:23;;;;;;;11.73;4.50;;;5.50;99.90;;;;;;625755;226;26783;-73
2022/01/28 04:15:54;;;;;;;12.57;3.50;;;5.50;99.90;;;;;;625484;229;26586;-73
2022/01/28 04:18:15;;;;;;;14.07;4.50;;;5.50;99.90;;;;;;625428;229;26601;-73
2022/01/28 04:20:43;;;;;;;17.50;4.20;;;5.50;99.90;;;;;;625731;228;26613;-73
2022/01/28 04:23:10;;;;;;;9.10;4.03;;;5.50;99.90;;;;;;625495;229;26788;-73
2022/01/28 04:25:37;;;;;;;16.47;3.47;;;5.50;99.90;;;;;;625510;229;26544;-73
2022/01/28 04:28:04;;;;;;;10.83;3.40;;;5.50;99.90;;;;;;625404;229;26810;-73
2022/01/28 04:30:32;;;;;;;11.27;3.60;;;5.50;99.90;;;;;;625440;229;26527;-74
2022/01/28 04:32:59;;;;;;;12.67;3.43;;;5.50;99.90;;;;;;625364;228;26560;-74
2022/01/28 04:35:27;;;;;;;10.47;3.37;;;5.50;99.90;;;;;;625425;228;26535;-74
2022/01/28 04:38:10;;;;;;;13.50;3.60;;;5.50;99.90;;;;;;625413;229;26548;-74
2022/01/28 04:40:28;;;;;;;16.43;4.03;;;5.50;99.90;;;;;;625463;228;26720;-74
2022/01/28 04:45:41;;;;;;;11.10;4.20;;;5.60;99.90;;;;;;624396;229;26565;-74
2022/01/28 04:48:41;;;;;;;11.57;3.53;;;5.60;99.90;;;;;;624771;229;26527;-74
2022/01/28 04:50:59;;;;;;;13.10;4.17;;;5.60;99.90;;;;;;624703;230;26573;-74
2022/01/28 04:58:57;;;;;;;8.23;3.47;;;5.60;99.90;;;;;;611427;228;26581;-74
2022/01/28 05:01:41;;;;;;;16.13;4.07;;;5.70;99.90;;;;;;626485;229;26614;-74
2022/01/28 05:05:11;;;;;;;7.33;3.03;;;5.60;99.90;;;;;;625641;228;26509;-74
2022/01/28 05:12:00;;;;;;;11.70;3.60;;;5.70;99.90;;;;;;626072;228;26605;-74
2022/01/28 05:15:32;;;;;;;14.60;3.37;;;5.70;99.90;;;;;;624565;230;26619;-74
2022/01/28 05:24:56;;;;;;;15.57;3.53;;;5.70;99.90;;;;;;625756;229;26830;-74
2022/01/28 05:26:59;;;;;;;10.10;3.70;;;5.60;99.90;;;;;;624223;230;26632;-74
2022/01/28 05:29:24;;;;;;;9.13;3.40;;;5.60;99.90;;;;;;625793;228;26587;-74
2022/01/28 05:31:51;;;;;;;14.43;3.83;;;5.60;99.90;;;;;;625832;228;26849;-74
2022/01/28 05:34:18;;;;;;;9.70;3.43;;;5.60;99.90;;;;;;625390;229;26550;-74
2022/01/28 05:36:45;;;;;;;13.80;3.43;;;5.60;99.90;;;;;;625379;228;26780;-74
2022/01/28 05:39:12;;;;;;;13.23;4.03;;;5.70;99.90;;;;;;625401;228;26542;-73
2022/01/28 05:41:40;;;;;;;13.03;3.13;;;5.70;99.90;;;;;;625428;229;26558;-73
2022/01/28 05:44:08;;;;;;;14.20;3.83;;;5.70;99.90;;;;;;625401;228;26534;-73
2022/01/28 05:46:36;;;;;;;18.53;3.47;;;5.80;99.90;;;;;;626036;225;26566;-74
2022/01/28 05:49:03;;;;;;;9.23;3.83;;;5.80;99.90;;;;;;632157;225;26590;-73
2022/01/28 05:51:31;;;;;;;9.07;3.03;;;5.80;99.90;;;;;;627444;225;26852;-73
2022/01/28 05:53:58;;;;;;;14.93;3.50;;;5.70;99.90;;;;;;632219;225;26620;-73
2022/01/28 05:56:25;;;;;;;13.80;3.83;;;5.60;99.90;;;;;;630606;225;26890;-73
2022/01/28 05:58:52;;;;;;;15.03;3.83;;;5.60;99.90;;;;;;629823;226;26599;-73
2022/01/28 06:01:19;;;;;;;15.47;4.07;;;5.60;99.90;;;;;;629898;225;26620;-74
2022/01/28 06:03:47;;;;;;;12.07;3.73;;;5.80;99.90;;;;;;629444;225;26586;-74
2022/01/28 06:06:21;;;;;;;15.97;4.53;;;5.80;99.90;;;;;;631212;222;26582;-74
2022/01/28 06:08:47;;;;;;;13.73;5.07;;;5.70;99.90;;;;;;628037;226;26588;-73
2022/01/28 06:11:14;;;;;;;13.20;4.00;;;5.70;99.90;;;;;;628818;226;26605;-74
2022/01/28 06:13:41;;;;;;;16.03;4.00;;;5.70;99.90;;;;;;630987;225;26797;-73
2022/01/28 06:16:09;;;;;;;9.70;3.23;;;5.80;99.90;;;;;;630386;223;26591;-73
2022/01/28 06:18:35;;;;;;;12.00;2.97;;;5.70;99.90;;;;;;629797;226;26794;-74
2022/01/28 06:21:02;;;;;;;14.70;3.90;;;5.70;99.90;;;;;;630018;225;26568;-73
2022/01/28 06:23:30;;;;;;;11.07;4.30;;;5.70;99.90;;;;;;628410;226;26576;-74
2022/01/28 06:25:58;;;;;;;13.47;4.73;;;5.80;99.90;;;;;;628712;226;26552;-73
2022/01/28 06:28:26;;;;;;;14.20;4.83;;;5.80;99.90;;;;;;628629;226;26961;-74
2022/01/28 06:30:54;;;;;;;9.67;4.30;;;5.80;99.90;;;;;;629918;226;26593;-74
2022/01/28 06:33:20;;;;;;;11.53;3.70;;;5.80;99.90;;;;;;629976;226;26593;-74
2022/01/28 06:35:48;;;;;;;15.27;4.03;;;5.80;99.90;;;;;;630693;226;27239;-74
2022/01/28 06:38:15;;;;;;;13.53;4.73;;;5.60;99.90;;;;;;630878;226;26637;-73
2022/01/28 06:40:42;;;;;;;11.90;4.10;;;5.60;99.90;;;;;;628471;226;27275;-74
2022/01/28 06:43:10;;;;;;;14.33;4.10;;;5.60;99.90;;;;;;630838;225;26625;-74
2022/01/28 06:45:41;;;;;;;21.70;4.53;;;5.60;99.90;;;;;;631018;225;26587;-74
2022/01/28 06:48:07;;;;;;;13.20;4.03;;;5.80;99.90;;;;;;631566;225;26581;-74
2022/01/28 06:50:33;;;;;;;14.07;3.73;;;5.80;99.90;;;;;;631815;225;26825;-74
2022/01/28 06:53:00;;;;;;;10.73;3.63;;;5.70;99.90;;;;;;630411;225;26609;-74
2022/01/28 06:55:28;;;;;;;17.27;4.67;;;5.60;99.90;;;;;;627994;226;26809;-74
2022/01/28 06:57:56;;;;;;;15.67;4.00;;;5.60;99.90;;;;;;628968;226;26616;-73
2022/01/28 07:00:22;;;;;;;16.93;4.50;;;5.70;99.90;;;;;;627757;226;26829;-73
2022/01/28 07:02:50;;;;;;;11.87;4.67;;;5.60;99.90;;;;;;629006;226;26606;-73
2022/01/28 07:05:19;;;;;;;12.47;3.77;;;5.80;99.90;;;;;;627248;229;26645;-73
2022/01/28 07:07:47;;;;;;;16.67;4.57;;;5.80;99.90;;;;;;631119;225;26557;-74
2022/01/28 07:10:15;;;;;;;15.27;4.20;;;5.80;99.90;;;;;;627153;229;26543;-73
2022/01/28 07:12:42;;;;;;;18.03;4.00;;;5.70;99.90;;;;;;629443;225;26594;-72
2022/01/28 07:15:10;;;;;;;15.13;3.70;;;5.80;99.90;;;;;;630629;225;26590;-72
2022/01/28 07:17:37;;;;;;;16.30;4.30;;;5.70;99.90;;;;;;630239;225;26568;-72
2022/01/28 07:20:05;;;;;;;19.50;4.70;;;5.50;99.90;;;;;;628381;226;26589;-74
2022/01/28 07:22:32;;;;;;;16.43;4.03;;;5.50;99.90;;;;;;629356;225;26876;-75
2022/01/28 07:24:59;;;;;;;17.27;4.90;;;5.50;99.90;;;;;;632504;226;26788;-74
2022/01/28 07:27:27;;;;;;;14.60;4.57;;;5.40;99.90;;;;;;630943;226;26601;-74
2022/01/28 07:29:55;;;;;;;14.70;3.77;;;5.20;99.90;;;;;;628582;228;26530;-74
2022/01/28 07:32:24;;;;;;;16.77;5.70;;;5.10;99.90;;;;;;629060;224;26558;-75
2022/01/28 07:34:51;;;;;;;14.07;4.30;;;5.10;99.90;;;;;;626949;225;26807;-75
2022/01/28 07:37:18;;;;;;;21.43;5.07;;;5.00;99.90;;;;;;630902;226;26599;-75
2022/01/28 07:39:45;;;;;;;14.07;3.73;;;5.00;99.90;;;;;;631955;226;27260;-75
2022/01/28 07:42:13;;;;;;;13.97;4.23;;;5.00;99.90;;;;;;629414;225;26649;-75
2022/01/28 07:44:41;;;;;;;14.93;4.40;;;5.00;99.90;;;;;;629011;228;26535;-75
2022/01/28 07:47:08;;;;;;;15.13;4.90;;;5.00;99.90;;;;;;633108;225;26584;-75
2022/01/28 07:49:35;;;;;;;16.53;4.20;;;5.00;99.90;;;;;;637257;225;26585;-76
2022/01/28 07:52:03;;;;;;;19.03;4.77;;;5.00;99.90;;;;;;628747;225;26850;-75
2022/01/28 07:54:31;;;;;;;17.10;5.57;;;4.80;99.90;;;;;;626560;226;26577;-75
2022/01/28 07:57:01;;;;;;;16.30;4.37;;;4.90;99.90;;;;;;631632;226;26589;-75
2022/01/28 07:59:27;;;;;;;13.97;4.57;;;4.90;99.90;;;;;;625316;229;26566;-75
2022/01/28 08:01:54;;;;;;;17.67;5.03;;;4.90;99.90;;;;;;632786;226;26858;-75
2022/01/28 08:04:21;;;;;;;11.70;3.43;;;4.80;99.90;;;;;;628708;226;26576;-75
2022/01/28 08:06:49;;;;;;;18.43;5.13;;;4.80;99.90;;;;;;625750;226;26852;-75
2022/01/28 08:09:16;;;;;;;20.87;4.90;;;4.80;99.90;;;;;;625417;228;26543;-75
2022/01/28 08:11:43;;;;;;;22.63;5.43;;;4.80;99.90;;;;;;627663;229;27298;-75
2022/01/28 08:14:11;;;;;;;17.53;5.03;;;4.80;99.90;;;;;;636513;225;26535;-75
2022/01/28 08:16:39;;;;;;;17.27;4.03;;;4.70;99.90;;;;;;635151;225;26495;-75
2022/01/28 08:19:07;;;;;;;13.20;4.97;;;4.60;99.90;;;;;;637958;225;26540;-76
2022/01/28 08:21:34;;;;;;;16.40;4.30;;;4.60;99.90;;;;;;636292;221;27057;-75
2022/01/28 08:24:01;;;;;;;16.53;4.30;;;4.70;99.90;;;;;;630040;226;26590;-75
2022/01/28 08:26:28;;;;;;;15.10;4.63;;;4.60;99.90;;;;;;627125;225;26825;-73
2022/01/28 08:28:55;;;;;;;16.37;4.90;;;4.60;99.90;;;;;;627635;226;26592;-70
2022/01/28 08:31:23;;;;;;;14.40;4.77;;;4.70;99.90;;;;;;631319;226;26825;-72
2022/01/28 08:33:51;;;;;;;16.27;4.77;;;4.60;99.90;;;;;;635102;226;26586;-72
2022/01/28 08:36:20;;;;;;;22.90;4.80;;;4.60;99.90;;;;;;627513;228;26621;-72
2022/01/28 08:38:49;;;;;;;20.13;4.37;;;4.60;99.90;;;;;;629601;228;26540;-72
2022/01/28 08:41:15;;;;;;;12.27;4.67;;;4.70;99.90;;;;;;626940;228;26609;-73
2022/01/28 08:43:42;;;;;;;20.50;5.53;;;4.70;99.90;;;;;;629089;226;26610;-72
2022/01/28 08:46:09;;;;;;;19.67;4.93;;;4.70;99.90;;;;;;628563;228;26538;-73
2022/01/28 08:48:36;;;;;;;27.87;4.83;;;4.80;99.90;;;;;;630161;226;26824;-73
2022/01/28 08:51:03;;;;;;;11.13;3.80;;;4.70;99.90;;;;;;629446;226;26578;-73
2022/01/28 08:53:31;;;;;;;20.33;5.07;;;4.70;99.90;;;;;;625713;228;27326;-73
2022/01/28 08:55:59;;;;;;;22.83;5.37;;;4.80;99.90;;;;;;628094;228;26538;-73
2022/01/28 08:58:27;;;;;;;10.80;4.17;;;4.80;99.90;;;;;;625212;228;26594;-73
2022/01/28 09:00:55;;;;;;;20.07;4.33;;;4.90;99.90;;;;;;625430;228;26619;-72
2022/01/28 09:03:22;;;;;;;13.97;4.17;;;4.90;99.90;;;;;;625494;228;26605;-72
2022/01/28 09:05:49;;;;;;;16.17;5.53;;;4.90;99.90;;;;;;625544;228;26800;-72
2022/01/28 09:08:16;;;;;;;17.80;5.80;;;4.90;99.90;;;;;;625329;228;26595;-72
2022/01/28 09:10:46;;;;;;;16.00;4.67;;;4.90;99.90;;;;;;625175;228;26874;-72
2022/01/28 09:13:22;;;;;;;13.43;4.97;;;4.90;99.90;;;;;;625315;230;26814;-72
2022/01/28 09:15:38;;;;;;;20.87;4.50;;;4.90;99.90;;;;;;624694;229;27078;-72
2022/01/28 09:18:06;;;;;;;13.97;4.23;;;5.00;99.90;;;;;;625425;230;26534;-72
2022/01/28 09:20:34;;;;;;;13.23;4.67;;;5.00;99.90;;;;;;625347;228;26535;-72
2022/01/28 09:23:01;;;;;;;17.27;4.67;;;5.00;99.90;;;;;;627974;226;26627;-74
2022/01/28 09:25:28;;;;;;;19.27;5.23;;;5.10;99.90;;;;;;634059;225;27046;-72
2022/01/28 09:27:55;;;;;;;17.00;5.03;;;5.00;99.90;;;;;;630690;225;26813;-73
2022/01/28 09:30:22;;;;;;;21.10;5.93;;;5.10;99.90;;;;;;628023;226;26579;-73
2022/01/28 09:32:50;;;;;;;19.00;4.73;;;5.30;99.90;;;;;;628699;228;26847;-76
2022/01/28 09:35:18;;;;;;;17.70;4.83;;;5.30;99.90;;;;;;628765;229;26640;-73
2022/01/28 09:37:46;;;;;;;18.83;5.07;;;5.20;99.90;;;;;;628356;225;26598;-74
2022/01/28 09:40:13;;;;;;;17.87;4.43;;;5.30;99.90;;;;;;626278;225;26563;-73
2022/01/28 09:42:43;;;;;;;23.33;5.27;;;5.30;99.90;;;;;;626786;225;26623;-72
2022/01/28 09:45:09;;;;;;;16.70;4.87;;;5.30;99.90;;;;;;628196;227;26590;-73
2022/01/28 09:47:36;;;;;;;17.10;4.70;;;5.30;99.90;;;;;;635030;226;26598;-73
2022/01/28 09:50:05;;;;;;;19.30;4.33;;;5.20;99.90;;;;;;637533;225;26822;-73
2022/01/28 09:52:32;;;;;;;16.03;4.53;;;5.30;99.90;;;;;;627137;228;26554;-73
2022/01/28 09:54:59;;;;;;;17.50;5.00;;;5.50;99.90;;;;;;631895;226;27241;-73
2022/01/28 09:57:27;;;;;;;17.43;4.87;;;5.70;99.90;;;;;;630082;225;26790;-73
2022/01/28 09:59:55;;;;;;;26.70;5.70;;;6.10;99.90;;;;;;636101;225;26545;-72
2022/01/28 10:02:22;;;;;;;18.83;4.53;;;6.10;99.90;;;;;;625593;228;26829;-72
2022/01/28 10:04:49;;;;;;;14.70;3.70;;;6.10;99.90;;;;;;622040;230;26599;-73
2022/01/28 10:07:16;;;;;;;14.83;4.30;;;6.20;99.90;;;;;;627430;228;27225;-73
2022/01/28 10:09:53;;;;;;;18.40;4.97;;;6.10;99.90;;;;;;633796;226;26597;-72
2022/01/28 10:12:28;;;;;;;15.53;4.10;;;6.20;99.90;;;;;;631170;226;26849;-73
2022/01/28 10:14:59;;;;;;;15.30;4.77;;;6.40;99.90;;;;;;627090;228;26787;-73
2022/01/28 10:17:25;;;;;;;17.80;4.47;;;6.40;99.90;;;;;;627766;228;26510;-73
2022/01/28 10:19:52;;;;;;;16.97;4.97;;;6.70;99.90;;;;;;628854;228;26821;-73
2022/01/28 10:22:20;;;;;;;17.10;3.90;;;6.80;99.90;;;;;;623957;227;26564;-73
2022/01/28 10:24:48;;;;;;;12.90;4.37;;;6.70;99.90;;;;;;627449;228;26587;-73
2022/01/28 10:27:17;;;;;;;20.00;4.37;;;6.80;99.90;;;;;;625369;229;26547;-73
2022/01/28 10:29:43;;;;;;;13.63;4.07;;;6.80;99.90;;;;;;627808;229;26630;-73
2022/01/28 10:32:11;;;;;;;9.00;3.80;;;6.60;99.90;;;;;;627496;226;26627;-73
2022/01/28 10:34:40;;;;;;;18.37;4.43;;;6.30;99.90;;;;;;632063;226;26597;-73
2022/01/28 10:37:22;;;;;;;16.20;4.00;;;6.50;99.90;;;;;;631303;225;26556;-73
2022/01/28 10:39:53;;;;;;;15.23;4.23;;;6.60;99.90;;;;;;634379;226;26560;-73
2022/01/28 10:42:35;;;;;;;17.20;4.53;;;6.60;99.90;;;;;;636054;225;26531;-73
2022/01/28 10:45:11;;;;;;;12.70;3.67;;;6.10;99.90;;;;;;627651;229;26534;-73
2022/01/28 10:47:38;;;;;;;11.90;3.93;;;6.10;99.90;;;;;;628203;229;26552;-73
2022/01/28 10:50:16;;;;;;;15.63;4.03;;;5.80;99.90;;;;;;626363;227;26504;-75
2022/01/28 10:52:43;;;;;;;10.13;3.80;;;5.70;99.90;;;;;;631423;226;26589;-73
2022/01/28 10:55:16;;;;;;;15.63;4.83;;;5.70;99.90;;;;;;626741;226;27349;-73
2022/01/28 10:57:43;;;;;;;9.70;3.40;;;5.70;99.90;;;;;;626752;222;26858;-74
2022/01/28 11:00:12;;;;;;;12.77;3.53;;;5.70;99.90;;;;;;624693;229;26573;-74
2022/01/28 11:02:39;;;;;;;14.63;3.80;;;5.70;99.90;;;;;;626376;229;26589;-74
2022/01/28 11:05:06;;;;;;;15.27;5.07;;;5.90;99.90;;;;;;626876;226;26566;-73
2022/01/28 11:07:35;;;;;;;15.43;4.90;;;5.90;99.90;;;;;;631205;226;26508;-73
2022/01/28 11:10:02;;;;;;;14.13;3.90;;;5.90;99.90;;;;;;629429;228;26606;-73
2022/01/28 11:12:29;;;;;;;16.63;4.10;;;5.90;99.90;;;;;;629286;224;26562;-73
2022/01/28 11:14:56;;;;;;;16.20;4.10;;;5.80;99.90;;;;;;629051;228;26872;-73
2022/01/28 11:17:23;;;;;;;17.80;3.87;;;5.30;99.90;;;;;;629164;223;26538;-73
2022/01/28 11:19:52;;;;;;;14.60;4.20;;;5.80;99.90;;;;;;629121;228;26778;-73
2022/01/28 11:22:22;;;;;;;14.03;3.90;;;5.90;99.90;;;;;;629003;225;26555;-73
2022/01/28 11:24:56;;;;;;;13.00;5.13;;;6.40;99.90;;;;;;627682;228;26544;-73
2022/01/28 11:27:29;;;;;;;12.90;3.97;;;7.00;99.90;;;;;;628487;228;26555;-73
2022/01/28 11:30:07;;;;;;;16.30;5.13;;;7.00;99.90;;;;;;628786;227;26559;-73
2022/01/28 11:32:35;;;;;;;10.00;3.93;;;7.00;99.90;;;;;;628665;229;26617;-73
2022/01/28 11:35:06;;;;;;;15.53;4.00;;;7.30;99.90;;;;;;626113;229;26559;-71
2022/01/28 11:37:32;;;;;;;12.50;4.27;;;7.20;99.90;;;;;;628356;229;26571;-74
2022/01/28 11:40:08;;;;;;;11.63;3.70;;;7.30;99.90;;;;;;628669;226;26817;-74
2022/01/28 11:42:35;;;;;;;14.57;3.93;;;7.20;99.90;;;;;;628802;224;26623;-74
2022/01/28 11:45:04;;;;;;;17.07;3.53;;;7.10;99.90;;;;;;628739;228;26584;-74
2022/01/28 11:47:32;;;;;;;9.60;3.40;;;7.10;99.90;;;;;;628704;223;26591;-74
2022/01/28 11:50:06;;;;;;;10.63;3.50;;;7.10;99.90;;;;;;628722;228;26805;-74
2022/01/28 11:52:37;;;;;;;13.40;4.03;;;7.20;99.90;;;;;;628811;229;26610;-74
2022/01/28 11:55:30;;;;;;;9.67;2.97;;;7.60;99.90;;;;;;628708;228;26599;-74
2022/01/28 11:58:00;;;;;;;11.70;3.20;;;7.30;99.90;;;;;;628638;229;26589;-74
2022/01/28 12:00:33;;;;;;;10.53;3.10;;;7.30;99.90;;;;;;628325;229;26672;-73
2022/01/28 12:03:00;;;;;;;13.60;3.43;;;7.20;99.90;;;;;;628783;229;26637;-73
2022/01/28 12:05:56;;;;;;;10.60;3.67;;;7.10;99.90;;;;;;628632;228;27231;-73
2022/01/28 12:08:21;;;;;;;10.57;3.73;;;7.10;99.90;;;;;;630230;228;26797;-73
2022/01/28 12:10:51;;;;;;;9.77;3.37;;;6.70;99.90;;;;;;629985;227;26600;-73
2022/01/28 12:13:17;;;;;;;9.30;3.33;;;6.90;99.90;;;;;;629785;228;26777;-73
2022/01/28 12:16:11;;;;;;;10.60;3.00;;;6.90;99.90;;;;;;629569;228;26615;-73
2022/01/28 12:18:53;;;;;;;10.07;3.73;;;7.00;99.90;;;;;;628734;228;26538;-73
2022/01/28 12:21:27;;;;;;;17.03;4.13;;;7.50;99.90;;;;;;629372;226;26570;-72
2022/01/28 12:23:55;;;;;;;14.10;3.70;;;7.80;99.90;;;;;;629636;225;26777;-72
2022/01/28 12:26:23;;;;;;;13.63;3.83;;;7.70;99.90;;;;;;628869;225;26603;-72
2022/01/28 12:28:50;;;;;;;11.33;3.67;;;7.70;99.90;;;;;;633452;225;26585;-73
2022/01/28 12:31:18;;;;;;;11.23;3.70;;;7.60;99.90;;;;;;630592;225;26604;-72
2022/01/28 12:33:45;;;;;;;8.80;3.17;;;7.60;99.90;;;;;;630162;225;26880;-71
2022/01/28 12:36:12;;;;;;;10.83;3.33;;;7.40;99.90;;;;;;628734;226;26582;-72
2022/01/28 12:38:43;;;;;;;11.77;3.63;;;7.20;99.90;;;;;;634782;225;27423;-71
2022/01/28 12:41:08;;;;;;;7.93;3.37;;;7.50;99.90;;;;;;630586;226;26552;-71
2022/01/28 12:43:35;;;;;;;12.00;3.90;;;7.70;99.90;;;;;;627821;226;26578;-72
2022/01/28 12:46:08;;;;;;;13.67;3.17;;;7.70;99.90;;;;;;631951;226;26590;-72
2022/01/28 12:48:36;;;;;;;7.60;3.03;;;7.20;99.90;;;;;;626851;226;26564;-72
2022/01/28 12:51:04;;;;;;;9.20;3.47;;;7.20;99.90;;;;;;631943;226;26554;-72
2022/01/28 12:53:32;;;;;;;7.50;3.00;;;7.30;99.90;;;;;;629993;226;26604;-73
2022/01/28 12:56:01;;;;;;;14.60;3.67;;;7.10;99.90;;;;;;636840;225;26533;-72
2022/01/28 12:58:38;;;;;;;10.77;3.50;;;7.10;99.90;;;;;;627210;225;26549;-72
2022/01/28 13:01:05;;;;;;;10.93;3.37;;;7.10;99.90;;;;;;627682;223;26817;-73
2022/01/28 13:03:37;;;;;;;16.77;3.47;;;7.00;99.90;;;;;;626981;229;26544;-72
2022/01/28 13:06:07;;;;;;;11.83;3.10;;;6.90;99.90;;;;;;634775;225;26801;-72
2022/01/28 13:08:27;;;;;;;8.10;3.10;;;6.70;99.90;;;;;;626144;225;26611;-72
2022/01/28 13:10:55;;;;;;;11.07;4.10;;;6.60;99.90;;;;;;630122;226;26574;-73
2022/01/28 13:13:23;;;;;;;8.13;2.93;;;6.60;99.90;;;;;;636216;225;26539;-72
2022/01/28 13:15:52;;;;;;;10.70;3.57;;;6.60;99.90;;;;;;636118;225;26549;-72
2022/01/28 13:18:20;;;;;;;10.00;3.00;;;6.50;99.90;;;;;;628364;226;26628;-72
2022/01/28 13:20:48;;;;;;;8.90;2.90;;;6.60;99.90;;;;;;627385;228;26496;-72
2022/01/28 13:23:15;;;;;;;9.60;3.67;;;6.60;99.90;;;;;;632055;226;26891;-72
2022/01/28 13:25:43;;;;;;;11.87;3.17;;;6.60;99.90;;;;;;630811;226;26530;-72
2022/01/28 13:28:11;;;;;;;9.50;4.00;;;6.70;99.90;;;;;;626043;229;26601;-72
2022/01/28 13:30:40;;;;;;;7.33;2.83;;;6.70;99.90;;;;;;628705;228;26550;-72
2022/01/28 13:33:06;;;;;;;4.10;2.67;;;6.60;99.90;;;;;;628954;226;26574;-72
2022/01/28 13:35:35;;;;;;;7.33;3.07;;;6.60;99.90;;;;;;631049;226;26831;-69
2022/01/28 13:38:03;;;;;;;8.93;3.07;;;6.60;99.90;;;;;;625547;229;26591;-69
2022/01/28 13:40:30;;;;;;;8.13;3.17;;;6.80;99.90;;;;;;633532;226;26545;-69
2022/01/28 13:42:58;;;;;;;7.50;2.87;;;6.80;99.90;;;;;;626430;228;26829;-70
2022/01/28 13:45:31;;;;;;;10.37;3.40;;;7.10;99.90;;;;;;627122;228;26607;-75
2022/01/28 13:47:59;;;;;;;7.93;3.23;;;6.90;99.90;;;;;;626863;228;26558;-75
2022/01/28 13:50:29;;;;;;;13.80;3.23;;;6.80;99.90;;;;;;625799;228;26805;-75
2022/01/28 13:55:43;;;;;;;10.53;3.17;;;6.90;99.90;;;;;;632797;225;26778;-75
2022/01/28 13:58:10;;;;;;;7.17;3.20;;;7.00;99.90;;;;;;626257;228;26596;-77